sensor_id;sensor_type;location;lat;lon;timestamp;P1;durP1;ratioP1;P2;durP2;ratioP2
18520;SDS011;9390;51.244;6.982;2023-12-20T00:00:01;13.43;;;3.75;;
18520;SDS011;9390;51.244;6.982;2023-12-20T00:02:34;15.90;;;3.83;;
18520;SDS011;9390;51.244;6.982;2023-12-20T00:05:06;9.90;;;3.92;;
18520;SDS011;9390;51.244;6.982;2023-12-20T00:07:38;20.80;;;4.53;;
18520;SDS011;9390;51.244;6.982;2023-12-20T00:10:09;12.77;;;4.72;;
18520;SDS011;9390;51.244;6.982;2023-12-20T00:12:42;19.98;;;4.70;;
18520;SDS011;9390;51.244;6.982;2023-12-20T00:15:14;13.45;;;4.15;;
18520;SDS011;9390;51.244;6.982;2023-12-20T00:17:46;14.27;;;4.43;;
18520;SDS011;9390;51.244;6.982;2023-12-20T00:20:18;15.07;;;5.22;;
18520;SDS011;9390;51.244;6.982;2023-12-20T00:22:49;15.68;;;5.35;;
18520;SDS011;9390;51.244;6.982;2023-12-20T00:25:20;17.77;;;5.18;;
18520;SDS011;9390;51.244;6.982;2023-12-20T00:27:52;25.30;;;5.43;;
18520;SDS011;9390;51.244;6.982;2023-12-20T00:30:23;19.60;;;5.30;;
18520;SDS011;9390;51.244;6.982;2023-12-20T00:32:56;23.58;;;5.95;;
18520;SDS011;9390;51.244;6.982;2023-12-20T00:35:27;20.30;;;5.50;;
18520;SDS011;9390;51.244;6.982;2023-12-20T00:37:59;21.48;;;5.70;;
18520;SDS011;9390;51.244;6.982;2023-12-20T00:40:30;23.08;;;5.60;;
18520;SDS011;9390;51.244;6.982;2023-12-20T00:43:01;24.88;;;7.35;;
18520;SDS011;9390;51.244;6.982;2023-12-20T00:45:33;26.80;;;7.93;;
18520;SDS011;9390;51.244;6.982;2023-12-20T00:48:06;27.20;;;7.95;;
18520;SDS011;9390;51.244;6.982;2023-12-20T00:50:38;29.42;;;7.80;;
18520;SDS011;9390;51.244;6.982;2023-12-20T00:53:09;27.88;;;6.95;;
18520;SDS011;9390;51.244;6.982;2023-12-20T00:55:40;29.15;;;7.75;;
18520;SDS011;9390;51.244;6.982;2023-12-20T00:58:14;22.98;;;6.93;;
18520;SDS011;9390;51.244;6.982;2023-12-20T01:00:45;27.85;;;8.02;;
18520;SDS011;9390;51.244;6.982;2023-12-20T01:03:18;30.95;;;8.05;;
18520;SDS011;9390;51.244;6.982;2023-12-20T01:05:50;23.70;;;7.40;;
18520;SDS011;9390;51.244;6.982;2023-12-20T01:08:21;32.20;;;7.35;;
18520;SDS011;9390;51.244;6.982;2023-12-20T01:10:52;28.50;;;8.07;;
18520;SDS011;9390;51.244;6.982;2023-12-20T01:13:24;33.30;;;7.50;;
18520;SDS011;9390;51.244;6.982;2023-12-20T01:15:55;29.40;;;8.02;;
18520;SDS011;9390;51.244;6.982;2023-12-20T01:18:28;34.25;;;7.85;;
18520;SDS011;9390;51.244;6.982;2023-12-20T01:23:32;31.25;;;9.23;;
18520;SDS011;9390;51.244;6.982;2023-12-20T01:26:03;34.47;;;10.75;;
18520;SDS011;9390;51.244;6.982;2023-12-20T01:28:35;35.97;;;10.45;;
18520;SDS011;9390;51.244;6.982;2023-12-20T01:31:07;32.33;;;10.55;;
18520;SDS011;9390;51.244;6.982;2023-12-20T01:33:39;36.70;;;11.25;;
18520;SDS011;9390;51.244;6.982;2023-12-20T01:36:11;39.55;;;13.75;;
18520;SDS011;9390;51.244;6.982;2023-12-20T01:38:42;47.58;;;15.60;;
18520;SDS011;9390;51.244;6.982;2023-12-20T01:41:13;46.17;;;15.48;;
18520;SDS011;9390;51.244;6.982;2023-12-20T01:43:45;48.08;;;15.10;;
18520;SDS011;9390;51.244;6.982;2023-12-20T01:46:16;58.00;;;17.17;;
18520;SDS011;9390;51.244;6.982;2023-12-20T01:48:49;47.10;;;16.80;;
18520;SDS011;9390;51.244;6.982;2023-12-20T01:51:21;64.40;;;19.33;;
18520;SDS011;9390;51.244;6.982;2023-12-20T01:53:52;61.00;;;16.95;;
18520;SDS011;9390;51.244;6.982;2023-12-20T01:56:24;47.45;;;18.67;;
18520;SDS011;9390;51.244;6.982;2023-12-20T01:58:56;54.88;;;18.75;;
18520;SDS011;9390;51.244;6.982;2023-12-20T02:01:27;59.92;;;19.95;;
18520;SDS011;9390;51.244;6.982;2023-12-20T02:04:00;47.65;;;16.48;;
18520;SDS011;9390;51.244;6.982;2023-12-20T02:06:32;51.53;;;16.75;;
18520;SDS011;9390;51.244;6.982;2023-12-20T02:09:04;50.17;;;17.13;;
18520;SDS011;9390;51.244;6.982;2023-12-20T02:11:36;47.63;;;15.95;;
18520;SDS011;9390;51.244;6.982;2023-12-20T02:14:07;49.40;;;16.13;;
18520;SDS011;9390;51.244;6.982;2023-12-20T02:16:39;52.95;;;16.13;;
18520;SDS011;9390;51.244;6.982;2023-12-20T02:19:12;39.50;;;14.55;;
18520;SDS011;9390;51.244;6.982;2023-12-20T02:21:46;50.95;;;13.68;;
18520;SDS011;9390;51.244;6.982;2023-12-20T02:24:18;42.88;;;13.80;;
18520;SDS011;9390;51.244;6.982;2023-12-20T02:26:49;36.20;;;12.90;;
18520;SDS011;9390;51.244;6.982;2023-12-20T02:29:21;39.97;;;12.82;;
18520;SDS011;9390;51.244;6.982;2023-12-20T02:31:52;42.40;;;12.38;;
18520;SDS011;9390;51.244;6.982;2023-12-20T02:34:23;36.20;;;11.75;;
18520;SDS011;9390;51.244;6.982;2023-12-20T02:36:56;31.23;;;10.45;;
18520;SDS011;9390;51.244;6.982;2023-12-20T02:39:28;30.98;;;10.07;;
18520;SDS011;9390;51.244;6.982;2023-12-20T02:41:59;39.53;;;11.40;;
18520;SDS011;9390;51.244;6.982;2023-12-20T02:44:30;31.77;;;10.52;;
18520;SDS011;9390;51.244;6.982;2023-12-20T02:47:02;27.25;;;10.38;;
18520;SDS011;9390;51.244;6.982;2023-12-20T02:49:33;37.58;;;10.75;;
18520;SDS011;9390;51.244;6.982;2023-12-20T02:52:06;34.10;;;11.40;;
18520;SDS011;9390;51.244;6.982;2023-12-20T02:54:38;37.17;;;10.77;;
18520;SDS011;9390;51.244;6.982;2023-12-20T02:57:09;32.55;;;10.93;;
18520;SDS011;9390;51.244;6.982;2023-12-20T02:59:40;39.78;;;11.80;;
18520;SDS011;9390;51.244;6.982;2023-12-20T03:02:12;35.67;;;10.07;;
18520;SDS011;9390;51.244;6.982;2023-12-20T03:04:43;32.53;;;11.35;;
18520;SDS011;9390;51.244;6.982;2023-12-20T03:07:16;40.20;;;10.63;;
18520;SDS011;9390;51.244;6.982;2023-12-20T03:09:47;31.23;;;9.52;;
18520;SDS011;9390;51.244;6.982;2023-12-20T03:12:18;27.45;;;9.60;;
18520;SDS011;9390;51.244;6.982;2023-12-20T03:14:50;30.42;;;8.50;;
18520;SDS011;9390;51.244;6.982;2023-12-20T03:17:21;29.30;;;8.25;;
18520;SDS011;9390;51.244;6.982;2023-12-20T03:19:52;25.65;;;6.60;;
18520;SDS011;9390;51.244;6.982;2023-12-20T03:22:25;20.60;;;6.93;;
18520;SDS011;9390;51.244;6.982;2023-12-20T03:24:57;28.17;;;7.47;;
18520;SDS011;9390;51.244;6.982;2023-12-20T03:27:28;26.92;;;6.97;;
18520;SDS011;9390;51.244;6.982;2023-12-20T03:29:59;30.95;;;7.20;;
18520;SDS011;9390;51.244;6.982;2023-12-20T03:32:31;21.73;;;6.82;;
18520;SDS011;9390;51.244;6.982;2023-12-20T03:35:02;24.92;;;8.18;;
18520;SDS011;9390;51.244;6.982;2023-12-20T03:37:35;25.95;;;7.57;;
18520;SDS011;9390;51.244;6.982;2023-12-20T03:40:07;27.48;;;7.85;;
18520;SDS011;9390;51.244;6.982;2023-12-20T03:42:39;29.15;;;7.03;;
18520;SDS011;9390;51.244;6.982;2023-12-20T03:45:10;26.88;;;7.80;;
18520;SDS011;9390;51.244;6.982;2023-12-20T03:47:42;37.00;;;7.15;;
18520;SDS011;9390;51.244;6.982;2023-12-20T03:50:13;22.65;;;6.53;;
18520;SDS011;9390;51.244;6.982;2023-12-20T03:52:46;22.30;;;7.40;;
18520;SDS011;9390;51.244;6.982;2023-12-20T03:55:17;38.80;;;7.13;;
18520;SDS011;9390;51.244;6.982;2023-12-20T03:57:49;28.60;;;5.95;;
18520;SDS011;9390;51.244;6.982;2023-12-20T04:00:20;24.30;;;6.05;;
18520;SDS011;9390;51.244;6.982;2023-12-20T04:02:51;27.67;;;6.20;;
18520;SDS011;9390;51.244;6.982;2023-12-20T04:05:23;24.38;;;6.35;;
18520;SDS011;9390;51.244;6.982;2023-12-20T04:07:55;30.95;;;5.85;;
18520;SDS011;9390;51.244;6.982;2023-12-20T04:10:27;23.33;;;6.22;;
18520;SDS011;9390;51.244;6.982;2023-12-20T04:12:58;26.73;;;5.95;;
18520;SDS011;9390;51.244;6.982;2023-12-20T04:15:29;28.17;;;6.88;;
18520;SDS011;9390;51.244;6.982;2023-12-20T04:18:01;20.95;;;6.50;;
18520;SDS011;9390;51.244;6.982;2023-12-20T04:20:32;31.02;;;6.60;;
18520;SDS011;9390;51.244;6.982;2023-12-20T04:23:05;26.35;;;5.47;;
18520;SDS011;9390;51.244;6.982;2023-12-20T04:25:36;37.78;;;6.18;;
18520;SDS011;9390;51.244;6.982;2023-12-20T04:28:08;22.38;;;5.60;;
18520;SDS011;9390;51.244;6.982;2023-12-20T04:30:39;23.48;;;6.43;;
18520;SDS011;9390;51.244;6.982;2023-12-20T04:33:10;32.22;;;6.75;;
18520;SDS011;9390;51.244;6.982;2023-12-20T04:35:42;32.90;;;7.32;;
18520;SDS011;9390;51.244;6.982;2023-12-20T04:38:17;19.73;;;6.10;;
18520;SDS011;9390;51.244;6.982;2023-12-20T04:40:48;30.52;;;7.55;;
18520;SDS011;9390;51.244;6.982;2023-12-20T04:43:19;32.95;;;7.07;;
18520;SDS011;9390;51.244;6.982;2023-12-20T04:45:51;32.95;;;6.63;;
18520;SDS011;9390;51.244;6.982;2023-12-20T04:48:22;31.88;;;6.43;;
18520;SDS011;9390;51.244;6.982;2023-12-20T04:50:53;31.13;;;6.70;;
18520;SDS011;9390;51.244;6.982;2023-12-20T04:53:26;30.77;;;7.80;;
18520;SDS011;9390;51.244;6.982;2023-12-20T04:55:58;28.95;;;7.25;;
18520;SDS011;9390;51.244;6.982;2023-12-20T04:58:29;27.02;;;6.80;;
18520;SDS011;9390;51.244;6.982;2023-12-20T05:01:00;27.15;;;6.90;;
18520;SDS011;9390;51.244;6.982;2023-12-20T05:03:32;26.30;;;7.25;;
18520;SDS011;9390;51.244;6.982;2023-12-20T05:06:03;29.38;;;8.02;;
18520;SDS011;9390;51.244;6.982;2023-12-20T05:08:36;25.98;;;7.90;;
18520;SDS011;9390;51.244;6.982;2023-12-20T05:11:07;32.20;;;8.35;;
18520;SDS011;9390;51.244;6.982;2023-12-20T05:13:39;28.85;;;8.95;;
18520;SDS011;9390;51.244;6.982;2023-12-20T05:16:10;29.95;;;9.18;;
18520;SDS011;9390;51.244;6.982;2023-12-20T05:18:44;30.30;;;9.45;;
18520;SDS011;9390;51.244;6.982;2023-12-20T05:21:15;35.65;;;9.20;;
18520;SDS011;9390;51.244;6.982;2023-12-20T05:23:48;32.22;;;9.60;;
18520;SDS011;9390;51.244;6.982;2023-12-20T05:26:20;33.38;;;9.40;;
18520;SDS011;9390;51.244;6.982;2023-12-20T05:28:51;28.92;;;8.27;;
18520;SDS011;9390;51.244;6.982;2023-12-20T05:31:22;32.88;;;9.48;;
18520;SDS011;9390;51.244;6.982;2023-12-20T05:33:54;32.45;;;8.15;;
18520;SDS011;9390;51.244;6.982;2023-12-20T05:36:25;34.10;;;8.23;;
18520;SDS011;9390;51.244;6.982;2023-12-20T05:38:58;26.45;;;8.35;;
18520;SDS011;9390;51.244;6.982;2023-12-20T05:41:29;30.70;;;8.30;;
18520;SDS011;9390;51.244;6.982;2023-12-20T05:44:01;24.67;;;7.35;;
18520;SDS011;9390;51.244;6.982;2023-12-20T05:46:32;27.25;;;7.78;;
18520;SDS011;9390;51.244;6.982;2023-12-20T05:49:03;26.77;;;8.05;;
18520;SDS011;9390;51.244;6.982;2023-12-20T05:51:35;22.90;;;6.70;;
18520;SDS011;9390;51.244;6.982;2023-12-20T05:54:07;26.27;;;6.45;;
18520;SDS011;9390;51.244;6.982;2023-12-20T05:56:39;26.00;;;7.20;;
18520;SDS011;9390;51.244;6.982;2023-12-20T05:59:11;27.42;;;6.57;;
18520;SDS011;9390;51.244;6.982;2023-12-20T06:01:42;26.02;;;6.65;;
18520;SDS011;9390;51.244;6.982;2023-12-20T06:04:13;42.55;;;6.93;;
18520;SDS011;9390;51.244;6.982;2023-12-20T06:06:45;35.25;;;6.78;;
18520;SDS011;9390;51.244;6.982;2023-12-20T06:09:17;25.80;;;6.75;;
18520;SDS011;9390;51.244;6.982;2023-12-20T06:11:49;32.75;;;7.50;;
18520;SDS011;9390;51.244;6.982;2023-12-20T06:14:21;33.55;;;7.05;;
18520;SDS011;9390;51.244;6.982;2023-12-20T06:16:52;36.83;;;7.40;;
18520;SDS011;9390;51.244;6.982;2023-12-20T06:19:23;25.35;;;7.32;;
18520;SDS011;9390;51.244;6.982;2023-12-20T06:21:55;33.00;;;7.78;;
18520;SDS011;9390;51.244;6.982;2023-12-20T06:24:27;26.15;;;8.10;;
18520;SDS011;9390;51.244;6.982;2023-12-20T06:26:59;32.88;;;7.38;;
18520;SDS011;9390;51.244;6.982;2023-12-20T06:29:31;28.73;;;6.97;;
18520;SDS011;9390;51.244;6.982;2023-12-20T06:32:02;24.92;;;6.45;;
18520;SDS011;9390;51.244;6.982;2023-12-20T06:34:34;30.13;;;6.97;;
18520;SDS011;9390;51.244;6.982;2023-12-20T06:37:06;30.30;;;7.53;;
18520;SDS011;9390;51.244;6.982;2023-12-20T06:39:39;28.77;;;7.50;;
18520;SDS011;9390;51.244;6.982;2023-12-20T06:42:10;37.90;;;8.82;;
18520;SDS011;9390;51.244;6.982;2023-12-20T06:44:41;25.48;;;7.18;;
18520;SDS011;9390;51.244;6.982;2023-12-20T06:47:13;43.63;;;10.18;;
18520;SDS011;9390;51.244;6.982;2023-12-20T06:49:45;47.03;;;8.13;;
18520;SDS011;9390;51.244;6.982;2023-12-20T06:52:16;28.83;;;8.50;;
18520;SDS011;9390;51.244;6.982;2023-12-20T06:54:49;21.45;;;7.85;;
18520;SDS011;9390;51.244;6.982;2023-12-20T06:57:21;27.65;;;8.07;;
18520;SDS011;9390;51.244;6.982;2023-12-20T06:59:52;26.45;;;7.72;;
18520;SDS011;9390;51.244;6.982;2023-12-20T07:02:23;38.67;;;9.48;;
18520;SDS011;9390;51.244;6.982;2023-12-20T07:04:55;25.42;;;7.53;;
18520;SDS011;9390;51.244;6.982;2023-12-20T07:07:26;29.73;;;7.80;;
18520;SDS011;9390;51.244;6.982;2023-12-20T07:09:59;30.25;;;8.75;;
18520;SDS011;9390;51.244;6.982;2023-12-20T07:12:30;29.15;;;7.53;;
18520;SDS011;9390;51.244;6.982;2023-12-20T07:15:02;31.38;;;8.98;;
18520;SDS011;9390;51.244;6.982;2023-12-20T07:17:33;25.05;;;7.97;;
18520;SDS011;9390;51.244;6.982;2023-12-20T07:20:05;33.20;;;9.90;;
18520;SDS011;9390;51.244;6.982;2023-12-20T07:22:40;30.60;;;7.78;;
18520;SDS011;9390;51.244;6.982;2023-12-20T07:25:13;28.92;;;8.57;;
18520;SDS011;9390;51.244;6.982;2023-12-20T07:27:45;26.33;;;7.07;;
18520;SDS011;9390;51.244;6.982;2023-12-20T07:30:16;38.90;;;8.27;;
18520;SDS011;9390;51.244;6.982;2023-12-20T07:32:48;35.10;;;9.02;;
18520;SDS011;9390;51.244;6.982;2023-12-20T07:35:19;23.63;;;8.55;;
18520;SDS011;9390;51.244;6.982;2023-12-20T07:37:50;27.23;;;7.00;;
18520;SDS011;9390;51.244;6.982;2023-12-20T07:40:23;35.95;;;7.65;;
18520;SDS011;9390;51.244;6.982;2023-12-20T07:42:54;30.60;;;7.68;;
18520;SDS011;9390;51.244;6.982;2023-12-20T07:45:26;25.35;;;6.93;;
18520;SDS011;9390;51.244;6.982;2023-12-20T07:47:57;28.73;;;7.63;;
18520;SDS011;9390;51.244;6.982;2023-12-20T07:50:29;25.95;;;6.78;;
18520;SDS011;9390;51.244;6.982;2023-12-20T07:53:00;32.63;;;7.93;;
18520;SDS011;9390;51.244;6.982;2023-12-20T07:55:33;33.92;;;7.28;;
18520;SDS011;9390;51.244;6.982;2023-12-20T07:58:04;39.88;;;8.02;;
18520;SDS011;9390;51.244;6.982;2023-12-20T08:00:36;34.92;;;8.15;;
18520;SDS011;9390;51.244;6.982;2023-12-20T08:03:08;35.95;;;7.90;;
18520;SDS011;9390;51.244;6.982;2023-12-20T08:05:39;32.92;;;7.55;;
18520;SDS011;9390;51.244;6.982;2023-12-20T08:08:11;24.95;;;7.75;;
18520;SDS011;9390;51.244;6.982;2023-12-20T08:10:44;26.65;;;7.65;;
18520;SDS011;9390;51.244;6.982;2023-12-20T08:13:15;23.70;;;8.10;;
18520;SDS011;9390;51.244;6.982;2023-12-20T08:15:46;38.20;;;8.18;;
18520;SDS011;9390;51.244;6.982;2023-12-20T08:18:18;30.70;;;9.20;;
18520;SDS011;9390;51.244;6.982;2023-12-20T08:20:49;36.75;;;9.23;;
18520;SDS011;9390;51.244;6.982;2023-12-20T08:25:55;32.92;;;7.93;;
18520;SDS011;9390;51.244;6.982;2023-12-20T08:28:26;33.78;;;9.00;;
18520;SDS011;9390;51.244;6.982;2023-12-20T08:30:58;34.08;;;8.52;;
18520;SDS011;9390;51.244;6.982;2023-12-20T08:33:29;34.47;;;8.55;;
18520;SDS011;9390;51.244;6.982;2023-12-20T08:36:01;24.60;;;7.93;;
18520;SDS011;9390;51.244;6.982;2023-12-20T08:38:35;31.25;;;8.18;;
18520;SDS011;9390;51.244;6.982;2023-12-20T08:41:08;30.77;;;8.65;;
18520;SDS011;9390;51.244;6.982;2023-12-20T08:43:39;28.08;;;8.38;;
18520;SDS011;9390;51.244;6.982;2023-12-20T08:46:11;36.67;;;8.82;;
18520;SDS011;9390;51.244;6.982;2023-12-20T08:48:42;35.83;;;8.25;;
18520;SDS011;9390;51.244;6.982;2023-12-20T08:51:13;24.80;;;7.47;;
18520;SDS011;9390;51.244;6.982;2023-12-20T08:53:45;26.35;;;8.38;;
18520;SDS011;9390;51.244;6.982;2023-12-20T08:56:19;29.98;;;7.70;;
18520;SDS011;9390;51.244;6.982;2023-12-20T08:58:50;28.13;;;7.82;;
18520;SDS011;9390;51.244;6.982;2023-12-20T09:01:22;40.45;;;8.93;;
18520;SDS011;9390;51.244;6.982;2023-12-20T09:03:53;27.65;;;8.38;;
18520;SDS011;9390;51.244;6.982;2023-12-20T09:06:24;36.13;;;8.60;;
18520;SDS011;9390;51.244;6.982;2023-12-20T09:08:56;29.40;;;7.75;;
18520;SDS011;9390;51.244;6.982;2023-12-20T09:11:29;51.85;;;9.27;;
18520;SDS011;9390;51.244;6.982;2023-12-20T09:14:00;35.70;;;8.27;;
18520;SDS011;9390;51.244;6.982;2023-12-20T09:16:31;26.23;;;8.52;;
18520;SDS011;9390;51.244;6.982;2023-12-20T09:19:03;30.42;;;8.38;;
18520;SDS011;9390;51.244;6.982;2023-12-20T09:21:34;27.25;;;7.43;;
18520;SDS011;9390;51.244;6.982;2023-12-20T09:24:05;21.55;;;6.95;;
18520;SDS011;9390;51.244;6.982;2023-12-20T09:26:39;30.10;;;7.40;;
18520;SDS011;9390;51.244;6.982;2023-12-20T09:29:12;24.80;;;6.65;;
18520;SDS011;9390;51.244;6.982;2023-12-20T09:31:45;25.27;;;6.72;;
18520;SDS011;9390;51.244;6.982;2023-12-20T09:34:17;23.20;;;6.18;;
18520;SDS011;9390;51.244;6.982;2023-12-20T09:36:48;29.33;;;6.47;;
18520;SDS011;9390;51.244;6.982;2023-12-20T09:39:20;31.17;;;6.78;;
18520;SDS011;9390;51.244;6.982;2023-12-20T09:41:57;24.90;;;7.03;;
18520;SDS011;9390;51.244;6.982;2023-12-20T09:44:31;28.92;;;6.47;;
18520;SDS011;9390;51.244;6.982;2023-12-20T09:47:04;27.95;;;7.15;;
18520;SDS011;9390;51.244;6.982;2023-12-20T09:49:36;29.60;;;5.90;;
18520;SDS011;9390;51.244;6.982;2023-12-20T09:52:07;20.90;;;6.72;;
18520;SDS011;9390;51.244;6.982;2023-12-20T09:54:40;15.13;;;5.53;;
18520;SDS011;9390;51.244;6.982;2023-12-20T09:57:14;35.38;;;6.32;;
18520;SDS011;9390;51.244;6.982;2023-12-20T09:59:46;25.63;;;5.90;;
18520;SDS011;9390;51.244;6.982;2023-12-20T10:02:17;29.52;;;6.90;;
18520;SDS011;9390;51.244;6.982;2023-12-20T10:04:53;16.13;;;4.60;;
18520;SDS011;9390;51.244;6.982;2023-12-20T10:07:25;22.20;;;6.18;;
18520;SDS011;9390;51.244;6.982;2023-12-20T10:09:56;24.23;;;5.80;;
18520;SDS011;9390;51.244;6.982;2023-12-20T10:12:29;27.02;;;5.28;;
18520;SDS011;9390;51.244;6.982;2023-12-20T10:15:01;25.02;;;5.68;;
18520;SDS011;9390;51.244;6.982;2023-12-20T10:17:32;26.20;;;5.25;;
18520;SDS011;9390;51.244;6.982;2023-12-20T10:20:05;25.65;;;6.40;;
18520;SDS011;9390;51.244;6.982;2023-12-20T10:22:39;20.73;;;5.28;;
18520;SDS011;9390;51.244;6.982;2023-12-20T10:25:11;28.67;;;6.25;;
18520;SDS011;9390;51.244;6.982;2023-12-20T10:27:43;20.52;;;6.22;;
18520;SDS011;9390;51.244;6.982;2023-12-20T10:30:15;26.13;;;5.53;;
18520;SDS011;9390;51.244;6.982;2023-12-20T10:32:46;20.67;;;6.32;;
18520;SDS011;9390;51.244;6.982;2023-12-20T10:35:19;23.58;;;5.13;;
18520;SDS011;9390;51.244;6.982;2023-12-20T10:37:50;24.80;;;6.13;;
18520;SDS011;9390;51.244;6.982;2023-12-20T10:40:24;24.38;;;6.82;;
18520;SDS011;9390;51.244;6.982;2023-12-20T10:42:57;19.75;;;5.78;;
18520;SDS011;9390;51.244;6.982;2023-12-20T10:45:29;22.73;;;5.97;;
18520;SDS011;9390;51.244;6.982;2023-12-20T10:48:01;27.85;;;5.78;;
18520;SDS011;9390;51.244;6.982;2023-12-20T10:50:33;22.88;;;6.07;;
18520;SDS011;9390;51.244;6.982;2023-12-20T10:53:08;31.95;;;6.13;;
18520;SDS011;9390;51.244;6.982;2023-12-20T10:55:39;20.80;;;5.25;;
18520;SDS011;9390;51.244;6.982;2023-12-20T10:58:12;23.20;;;6.18;;
18520;SDS011;9390;51.244;6.982;2023-12-20T11:00:44;23.10;;;5.55;;
18520;SDS011;9390;51.244;6.982;2023-12-20T11:03:16;22.25;;;5.35;;
18520;SDS011;9390;51.244;6.982;2023-12-20T11:05:49;25.65;;;5.30;;
18520;SDS011;9390;51.244;6.982;2023-12-20T11:08:27;16.38;;;5.53;;
18520;SDS011;9390;51.244;6.982;2023-12-20T11:11:03;20.63;;;5.22;;
18520;SDS011;9390;51.244;6.982;2023-12-20T11:13:43;23.88;;;5.85;;
18520;SDS011;9390;51.244;6.982;2023-12-20T11:16:19;22.25;;;5.90;;
18520;SDS011;9390;51.244;6.982;2023-12-20T11:18:50;29.05;;;6.30;;
18520;SDS011;9390;51.244;6.982;2023-12-20T11:21:22;23.40;;;5.80;;
18520;SDS011;9390;51.244;6.982;2023-12-20T11:23:55;23.02;;;5.30;;
18520;SDS011;9390;51.244;6.982;2023-12-20T11:26:27;16.70;;;5.30;;
18520;SDS011;9390;51.244;6.982;2023-12-20T11:34:35;19.27;;;5.00;;
18520;SDS011;9390;51.244;6.982;2023-12-20T11:37:07;30.90;;;5.82;;
18520;SDS011;9390;51.244;6.982;2023-12-20T11:39:39;20.05;;;5.38;;
18520;SDS011;9390;51.244;6.982;2023-12-20T11:42:11;21.17;;;4.88;;
18520;SDS011;9390;51.244;6.982;2023-12-20T11:44:44;27.52;;;5.78;;
18520;SDS011;9390;51.244;6.982;2023-12-20T11:47:16;20.15;;;5.72;;
18520;SDS011;9390;51.244;6.982;2023-12-20T11:49:49;21.80;;;5.20;;
18520;SDS011;9390;51.244;6.982;2023-12-20T11:52:34;18.65;;;4.85;;
18520;SDS011;9390;51.244;6.982;2023-12-20T11:55:06;17.20;;;5.07;;
18520;SDS011;9390;51.244;6.982;2023-12-20T11:57:38;16.70;;;5.80;;
18520;SDS011;9390;51.244;6.982;2023-12-20T12:00:12;22.20;;;5.40;;
18520;SDS011;9390;51.244;6.982;2023-12-20T12:02:54;24.83;;;6.32;;
18520;SDS011;9390;51.244;6.982;2023-12-20T12:05:26;25.08;;;6.32;;
18520;SDS011;9390;51.244;6.982;2023-12-20T12:07:58;29.98;;;5.85;;
18520;SDS011;9390;51.244;6.982;2023-12-20T12:10:29;24.38;;;6.10;;
18520;SDS011;9390;51.244;6.982;2023-12-20T12:13:01;24.15;;;6.28;;
18520;SDS011;9390;51.244;6.982;2023-12-20T12:15:34;14.20;;;4.85;;
18520;SDS011;9390;51.244;6.982;2023-12-20T12:18:05;19.98;;;5.55;;
18520;SDS011;9390;51.244;6.982;2023-12-20T12:20:38;17.83;;;4.50;;
18520;SDS011;9390;51.244;6.982;2023-12-20T12:23:09;18.10;;;5.30;;
18520;SDS011;9390;51.244;6.982;2023-12-20T12:25:40;17.88;;;5.38;;
18520;SDS011;9390;51.244;6.982;2023-12-20T12:28:12;21.80;;;7.15;;
18520;SDS011;9390;51.244;6.982;2023-12-20T12:30:47;21.50;;;6.15;;
18520;SDS011;9390;51.244;6.982;2023-12-20T12:33:27;15.95;;;5.28;;
18520;SDS011;9390;51.244;6.982;2023-12-20T12:35:59;21.55;;;5.78;;
18520;SDS011;9390;51.244;6.982;2023-12-20T12:38:31;25.08;;;5.45;;
18520;SDS011;9390;51.244;6.982;2023-12-20T12:41:03;21.00;;;5.35;;
18520;SDS011;9390;51.244;6.982;2023-12-20T12:43:37;17.10;;;6.03;;
18520;SDS011;9390;51.244;6.982;2023-12-20T12:46:09;18.38;;;5.75;;
18520;SDS011;9390;51.244;6.982;2023-12-20T12:51:12;14.07;;;5.97;;
18520;SDS011;9390;51.244;6.982;2023-12-20T12:53:44;23.33;;;6.15;;
18520;SDS011;9390;51.244;6.982;2023-12-20T12:56:15;19.17;;;5.97;;
18520;SDS011;9390;51.244;6.982;2023-12-20T12:58:47;23.42;;;6.30;;
18520;SDS011;9390;51.244;6.982;2023-12-20T13:01:20;16.70;;;5.45;;
18520;SDS011;9390;51.244;6.982;2023-12-20T13:03:51;23.05;;;6.25;;
18520;SDS011;9390;51.244;6.982;2023-12-20T13:06:22;24.75;;;6.68;;
18520;SDS011;9390;51.244;6.982;2023-12-20T13:08:54;18.98;;;5.80;;
18520;SDS011;9390;51.244;6.982;2023-12-20T13:11:26;26.15;;;6.47;;
18520;SDS011;9390;51.244;6.982;2023-12-20T13:13:57;19.35;;;6.05;;
18520;SDS011;9390;51.244;6.982;2023-12-20T13:16:30;17.92;;;6.40;;
18520;SDS011;9390;51.244;6.982;2023-12-20T13:19:02;19.85;;;7.28;;
18520;SDS011;9390;51.244;6.982;2023-12-20T13:21:33;19.00;;;6.97;;
18520;SDS011;9390;51.244;6.982;2023-12-20T13:24:05;22.40;;;7.32;;
18520;SDS011;9390;51.244;6.982;2023-12-20T13:26:39;13.48;;;6.75;;
18520;SDS011;9390;51.244;6.982;2023-12-20T13:29:10;25.80;;;8.82;;
18520;SDS011;9390;51.244;6.982;2023-12-20T13:31:43;23.00;;;7.15;;
18520;SDS011;9390;51.244;6.982;2023-12-20T13:34:14;21.58;;;7.07;;
18520;SDS011;9390;51.244;6.982;2023-12-20T13:36:47;24.07;;;7.90;;
18520;SDS011;9390;51.244;6.982;2023-12-20T13:39:20;18.27;;;7.63;;
18520;SDS011;9390;51.244;6.982;2023-12-20T13:41:52;21.33;;;8.07;;
18520;SDS011;9390;51.244;6.982;2023-12-20T13:44:23;20.80;;;7.57;;
18520;SDS011;9390;51.244;6.982;2023-12-20T13:46:56;29.30;;;8.20;;
18520;SDS011;9390;51.244;6.982;2023-12-20T13:49:27;14.98;;;7.35;;
18520;SDS011;9390;51.244;6.982;2023-12-20T13:51:59;22.65;;;6.90;;
18520;SDS011;9390;51.244;6.982;2023-12-20T13:54:30;28.00;;;7.50;;
18520;SDS011;9390;51.244;6.982;2023-12-20T13:57:02;17.88;;;7.70;;
18520;SDS011;9390;51.244;6.982;2023-12-20T13:59:34;17.17;;;7.10;;
18520;SDS011;9390;51.244;6.982;2023-12-20T14:02:06;22.15;;;8.10;;
18520;SDS011;9390;51.244;6.982;2023-12-20T14:04:38;20.35;;;7.88;;
18520;SDS011;9390;51.244;6.982;2023-12-20T14:07:10;19.75;;;8.90;;
18520;SDS011;9390;51.244;6.982;2023-12-20T14:09:42;19.48;;;7.72;;
18520;SDS011;9390;51.244;6.982;2023-12-20T14:12:15;16.00;;;7.45;;
18520;SDS011;9390;51.244;6.982;2023-12-20T14:14:46;23.65;;;8.00;;
18520;SDS011;9390;51.244;6.982;2023-12-20T14:17:19;17.20;;;7.68;;
18520;SDS011;9390;51.244;6.982;2023-12-20T14:19:50;22.52;;;8.20;;
18520;SDS011;9390;51.244;6.982;2023-12-20T14:22:24;17.25;;;7.53;;
18520;SDS011;9390;51.244;6.982;2023-12-20T14:24:55;15.30;;;7.43;;
18520;SDS011;9390;51.244;6.982;2023-12-20T14:27:28;17.60;;;6.47;;
18520;SDS011;9390;51.244;6.982;2023-12-20T14:29:59;17.38;;;7.35;;
18520;SDS011;9390;51.244;6.982;2023-12-20T14:32:34;17.65;;;6.80;;
18520;SDS011;9390;51.244;6.982;2023-12-20T14:35:07;20.20;;;7.85;;
18520;SDS011;9390;51.244;6.982;2023-12-20T14:37:39;16.63;;;7.35;;
18520;SDS011;9390;51.244;6.982;2023-12-20T14:40:10;18.98;;;7.25;;
18520;SDS011;9390;51.244;6.982;2023-12-20T14:42:45;21.98;;;9.65;;
18520;SDS011;9390;51.244;6.982;2023-12-20T14:45:16;15.20;;;6.88;;
18520;SDS011;9390;51.244;6.982;2023-12-20T14:47:49;20.20;;;6.82;;
18520;SDS011;9390;51.244;6.982;2023-12-20T14:50:21;18.52;;;7.53;;
18520;SDS011;9390;51.244;6.982;2023-12-20T14:52:52;13.82;;;6.88;;
18520;SDS011;9390;51.244;6.982;2023-12-20T14:55:25;17.65;;;7.50;;
18520;SDS011;9390;51.244;6.982;2023-12-20T14:57:57;18.83;;;7.05;;
18520;SDS011;9390;51.244;6.982;2023-12-20T15:00:28;23.63;;;7.75;;
18520;SDS011;9390;51.244;6.982;2023-12-20T15:03:01;17.30;;;7.22;;
18520;SDS011;9390;51.244;6.982;2023-12-20T15:05:34;23.23;;;7.40;;
18520;SDS011;9390;51.244;6.982;2023-12-20T15:08:06;20.58;;;7.40;;
18520;SDS011;9390;51.244;6.982;2023-12-20T15:10:37;19.15;;;7.13;;
18520;SDS011;9390;51.244;6.982;2023-12-20T15:13:09;30.10;;;7.32;;
18520;SDS011;9390;51.244;6.982;2023-12-20T15:15:41;25.10;;;7.32;;
18520;SDS011;9390;51.244;6.982;2023-12-20T15:18:14;17.92;;;7.32;;
18520;SDS011;9390;51.244;6.982;2023-12-20T15:20:45;17.60;;;7.05;;
18520;SDS011;9390;51.244;6.982;2023-12-20T15:23:17;25.73;;;8.15;;
18520;SDS011;9390;51.244;6.982;2023-12-20T15:25:50;22.95;;;8.13;;